sensor_id;sensor_type;location;lat;lon;timestamp;temperature;humidity
14993;DHT22;7592;51.088;13.732;2023-02-18T00:01:20;10.80;99.90
14993;DHT22;7592;51.088;13.732;2023-02-18T00:06:17;10.80;99.90
14993;DHT22;7592;51.088;13.732;2023-02-18T00:11:09;10.80;99.90
14993;DHT22;7592;51.088;13.732;2023-02-18T00:16:10;10.80;99.90
14993;DHT22;7592;51.088;13.732;2023-02-18T00:21:04;10.70;99.90
14993;DHT22;7592;51.088;13.732;2023-02-18T00:26:04;10.50;99.90
14993;DHT22;7592;51.088;13.732;2023-02-18T00:30:56;10.30;99.90
14993;DHT22;7592;51.088;13.732;2023-02-18T00:35:48;10.00;99.90
14993;DHT22;7592;51.088;13.732;2023-02-18T00:40:41;10.00;99.90
14993;DHT22;7592;51.088;13.732;2023-02-18T00:45:34;10.20;99.90
14993;DHT22;7592;51.088;13.732;2023-02-18T00:50:27;10.10;99.90
14993;DHT22;7592;51.088;13.732;2023-02-18T00:55:21;10.20;99.90
14993;DHT22;7592;51.088;13.732;2023-02-18T01:00:13;10.20;99.90
14993;DHT22;7592;51.088;13.732;2023-02-18T01:05:05;10.30;99.90
14993;DHT22;7592;51.088;13.732;2023-02-18T01:09:58;10.20;99.90
14993;DHT22;7592;51.088;13.732;2023-02-18T01:14:50;10.20;99.90
14993;DHT22;7592;51.088;13.732;2023-02-18T01:19:42;10.30;99.90
14993;DHT22;7592;51.088;13.732;2023-02-18T01:24:35;10.30;99.90
14993;DHT22;7592;51.088;13.732;2023-02-18T01:29:29;10.30;99.90
14993;DHT22;7592;51.088;13.732;2023-02-18T01:34:21;10.30;99.90
14993;DHT22;7592;51.088;13.732;2023-02-18T01:39:14;10.20;99.90
14993;DHT22;7592;51.088;13.732;2023-02-18T01:44:22;10.10;99.90
14993;DHT22;7592;51.088;13.732;2023-02-18T01:49:24;9.90;99.90
14993;DHT22;7592;51.088;13.732;2023-02-18T01:54:25;9.60;99.90
14993;DHT22;7592;51.088;13.732;2023-02-18T01:59:36;9.60;99.90
14993;DHT22;7592;51.088;13.732;2023-02-18T02:04:28;9.50;99.90
14993;DHT22;7592;51.088;13.732;2023-02-18T02:20:27;9.40;99.90
14993;DHT22;7592;51.088;13.732;2023-02-18T02:30:45;9.40;99.90
14993;DHT22;7592;51.088;13.732;2023-02-18T02:35:55;9.40;99.90
14993;DHT22;7592;51.088;13.732;2023-02-18T02:46:35;9.30;99.90
14993;DHT22;7592;51.088;13.732;2023-02-18T02:51:37;9.40;99.90
14993;DHT22;7592;51.088;13.732;2023-02-18T02:56:32;9.40;99.90
14993;DHT22;7592;51.088;13.732;2023-02-18T03:01:45;9.50;99.90
14993;DHT22;7592;51.088;13.732;2023-02-18T03:11:50;9.70;99.90
14993;DHT22;7592;51.088;13.732;2023-02-18T03:16:57;9.70;99.90
14993;DHT22;7592;51.088;13.732;2023-02-18T03:26:52;9.80;99.90
14993;DHT22;7592;51.088;13.732;2023-02-18T03:31:49;9.80;99.90
14993;DHT22;7592;51.088;13.732;2023-02-18T03:36:44;9.80;99.90
14993;DHT22;7592;51.088;13.732;2023-02-18T03:41:37;9.80;99.90
14993;DHT22;7592;51.088;13.732;2023-02-18T03:46:30;9.80;99.90
14993;DHT22;7592;51.088;13.732;2023-02-18T03:51:23;9.80;99.90
14993;DHT22;7592;51.088;13.732;2023-02-18T03:56:16;9.80;99.90
14993;DHT22;7592;51.088;13.732;2023-02-18T04:01:08;9.80;99.90
14993;DHT22;7592;51.088;13.732;2023-02-18T04:06:00;9.80;99.90
14993;DHT22;7592;51.088;13.732;2023-02-18T04:10:54;9.80;99.90
14993;DHT22;7592;51.088;13.732;2023-02-18T04:15:48;9.80;99.90
14993;DHT22;7592;51.088;13.732;2023-02-18T04:20:42;9.70;99.90
14993;DHT22;7592;51.088;13.732;2023-02-18T04:25:34;9.80;99.90
14993;DHT22;7592;51.088;13.732;2023-02-18T04:30:28;9.80;99.90
14993;DHT22;7592;51.088;13.732;2023-02-18T04:35:28;9.80;99.90
14993;DHT22;7592;51.088;13.732;2023-02-18T04:40:22;9.80;99.90
14993;DHT22;7592;51.088;13.732;2023-02-18T04:45:16;9.70;99.90
14993;DHT22;7592;51.088;13.732;2023-02-18T04:50:08;9.70;99.90
14993;DHT22;7592;51.088;13.732;2023-02-18T04:55:00;9.70;99.90
14993;DHT22;7592;51.088;13.732;2023-02-18T04:59:52;9.70;99.90
14993;DHT22;7592;51.088;13.732;2023-02-18T05:04:44;9.60;99.90
14993;DHT22;7592;51.088;13.732;2023-02-18T05:09:36;9.70;99.90
14993;DHT22;7592;51.088;13.732;2023-02-18T05:14:28;9.70;99.90
14993;DHT22;7592;51.088;13.732;2023-02-18T05:19:20;9.70;99.90
14993;DHT22;7592;51.088;13.732;2023-02-18T05:24:15;9.70;99.90
14993;DHT22;7592;51.088;13.732;2023-02-18T05:29:07;9.70;99.90
14993;DHT22;7592;51.088;13.732;2023-02-18T05:34:03;9.80;99.90
14993;DHT22;7592;51.088;13.732;2023-02-18T05:38:55;9.80;99.90
14993;DHT22;7592;51.088;13.732;2023-02-18T05:43:47;9.70;99.90
14993;DHT22;7592;51.088;13.732;2023-02-18T05:48:58;9.70;99.90
14993;DHT22;7592;51.088;13.732;2023-02-18T05:53:50;9.70;99.90
14993;DHT22;7592;51.088;13.732;2023-02-18T05:58:42;9.80;99.90
14993;DHT22;7592;51.088;13.732;2023-02-18T06:03:34;9.70;99.90
14993;DHT22;7592;51.088;13.732;2023-02-18T06:08:26;9.80;99.90
14993;DHT22;7592;51.088;13.732;2023-02-18T06:13:19;9.80;99.90
14993;DHT22;7592;51.088;13.732;2023-02-18T06:18:14;9.70;99.90
14993;DHT22;7592;51.088;13.732;2023-02-18T06:23:06;9.60;99.90
14993;DHT22;7592;51.088;13.732;2023-02-18T06:28:00;9.60;99.90
14993;DHT22;7592;51.088;13.732;2023-02-18T06:32:52;9.50;99.90
14993;DHT22;7592;51.088;13.732;2023-02-18T06:37:45;9.50;99.90
14993;DHT22;7592;51.088;13.732;2023-02-18T06:42:37;9.50;99.90
14993;DHT22;7592;51.088;13.732;2023-02-18T06:47:29;9.50;99.90
14993;DHT22;7592;51.088;13.732;2023-02-18T06:52:21;9.50;99.90
14993;DHT22;7592;51.088;13.732;2023-02-18T06:57:13;9.50;99.90
14993;DHT22;7592;51.088;13.732;2023-02-18T07:02:05;9.50;99.90
14993;DHT22;7592;51.088;13.732;2023-02-18T07:06:57;9.60;99.90
14993;DHT22;7592;51.088;13.732;2023-02-18T07:11:49;9.60;99.90
14993;DHT22;7592;51.088;13.732;2023-02-18T07:16:41;9.70;99.90
14993;DHT22;7592;51.088;13.732;2023-02-18T07:21:33;9.80;99.90
14993;DHT22;7592;51.088;13.732;2023-02-18T07:26:25;9.80;99.90
14993;DHT22;7592;51.088;13.732;2023-02-18T07:31:17;9.90;99.90
14993;DHT22;7592;51.088;13.732;2023-02-18T07:36:09;9.90;99.90
14993;DHT22;7592;51.088;13.732;2023-02-18T07:41:02;9.90;99.90
14993;DHT22;7592;51.088;13.732;2023-02-18T07:45:54;9.90;99.90
14993;DHT22;7592;51.088;13.732;2023-02-18T07:50:46;9.90;99.90
14993;DHT22;7592;51.088;13.732;2023-02-18T07:55:38;9.90;99.90
14993;DHT22;7592;51.088;13.732;2023-02-18T08:00:43;9.90;99.90
14993;DHT22;7592;51.088;13.732;2023-02-18T08:05:35;9.80;99.90
14993;DHT22;7592;51.088;13.732;2023-02-18T08:10:27;9.90;99.90
14993;DHT22;7592;51.088;13.732;2023-02-18T08:15:19;9.80;99.90
14993;DHT22;7592;51.088;13.732;2023-02-18T08:20:11;9.90;99.90
14993;DHT22;7592;51.088;13.732;2023-02-18T08:25:04;9.90;99.90
14993;DHT22;7592;51.088;13.732;2023-02-18T08:29:57;10.00;99.90
14993;DHT22;7592;51.088;13.732;2023-02-18T08:34:49;10.00;99.90
14993;DHT22;7592;51.088;13.732;2023-02-18T08:39:41;10.10;99.90
14993;DHT22;7592;51.088;13.732;2023-02-18T08:44:33;10.30;99.90
14993;DHT22;7592;51.088;13.732;2023-02-18T08:49:25;10.20;99.90
14993;DHT22;7592;51.088;13.732;2023-02-18T08:54:18;10.40;99.90
14993;DHT22;7592;51.088;13.732;2023-02-18T08:59:10;10.30;99.90
14993;DHT22;7592;51.088;13.732;2023-02-18T09:04:02;10.30;99.90
14993;DHT22;7592;51.088;13.732;2023-02-18T09:08:55;10.40;99.90
14993;DHT22;7592;51.088;13.732;2023-02-18T09:13:47;10.50;99.90
14993;DHT22;7592;51.088;13.732;2023-02-18T09:18:39;10.50;99.90
14993;DHT22;7592;51.088;13.732;2023-02-18T09:23:32;10.30;99.90
14993;DHT22;7592;51.088;13.732;2023-02-18T09:28:24;10.20;99.90
14993;DHT22;7592;51.088;13.732;2023-02-18T09:33:17;10.10;99.90
14993;DHT22;7592;51.088;13.732;2023-02-18T09:38:10;10.20;99.90
14993;DHT22;7592;51.088;13.732;2023-02-18T09:43:03;10.50;99.90
14993;DHT22;7592;51.088;13.732;2023-02-18T09:47:56;10.80;99.90
14993;DHT22;7592;51.088;13.732;2023-02-18T09:52:49;10.90;99.90
14993;DHT22;7592;51.088;13.732;2023-02-18T09:57:47;11.20;99.90
14993;DHT22;7592;51.088;13.732;2023-02-18T10:02:57;11.40;99.90
14993;DHT22;7592;51.088;13.732;2023-02-18T10:07:53;11.50;99.90
14993;DHT22;7592;51.088;13.732;2023-02-18T10:12:47;11.50;99.90
14993;DHT22;7592;51.088;13.732;2023-02-18T10:17:40;11.50;99.90
14993;DHT22;7592;51.088;13.732;2023-02-18T10:22:32;11.50;99.90
14993;DHT22;7592;51.088;13.732;2023-02-18T10:27:31;11.60;99.90
14993;DHT22;7592;51.088;13.732;2023-02-18T10:32:27;11.90;99.90
14993;DHT22;7592;51.088;13.732;2023-02-18T10:47:42;12.50;99.90
14993;DHT22;7592;51.088;13.732;2023-02-18T10:52:44;12.60;99.90
14993;DHT22;7592;51.088;13.732;2023-02-18T10:57:48;12.50;99.90
14993;DHT22;7592;51.088;13.732;2023-02-18T11:02:41;12.50;99.90
14993;DHT22;7592;51.088;13.732;2023-02-18T11:07:37;12.60;99.90
14993;DHT22;7592;51.088;13.732;2023-02-18T11:17:29;12.80;99.90
14993;DHT22;7592;51.088;13.732;2023-02-18T11:22:25;12.90;99.90
14993;DHT22;7592;51.088;13.732;2023-02-18T11:28:01;13.00;99.90
14993;DHT22;7592;51.088;13.732;2023-02-18T11:32:58;13.00;99.90
14993;DHT22;7592;51.088;13.732;2023-02-18T11:37:51;13.10;99.90
14993;DHT22;7592;51.088;13.732;2023-02-18T11:42:45;13.20;99.90
14993;DHT22;7592;51.088;13.732;2023-02-18T11:47:37;13.40;99.90
14993;DHT22;7592;51.088;13.732;2023-02-18T11:57:26;13.30;99.90
14993;DHT22;7592;51.088;13.732;2023-02-18T12:12:37;13.40;99.90
14993;DHT22;7592;51.088;13.732;2023-02-18T12:38:16;13.20;99.90
14993;DHT22;7592;51.088;13.732;2023-02-18T12:59:03;12.90;99.90
14993;DHT22;7592;51.088;13.732;2023-02-18T13:04:09;13.00;99.90
14993;DHT22;7592;51.088;13.732;2023-02-18T13:09:12;13.30;99.90
14993;DHT22;7592;51.088;13.732;2023-02-18T13:14:30;13.40;99.90
14993;DHT22;7592;51.088;13.732;2023-02-18T13:19:30;13.20;99.90
14993;DHT22;7592;51.088;13.732;2023-02-18T13:24:38;13.00;99.90
14993;DHT22;7592;51.088;13.732;2023-02-18T13:30:30;13.00;99.90
14993;DHT22;7592;51.088;13.732;2023-02-18T13:35:55;13.30;99.90
14993;DHT22;7592;51.088;13.732;2023-02-18T13:40:23;13.10;99.90
14993;DHT22;7592;51.088;13.732;2023-02-18T13:45:43;12.80;99.90
14993;DHT22;7592;51.088;13.732;2023-02-18T13:50:53;12.40;99.90
14993;DHT22;7592;51.088;13.732;2023-02-18T14:01:41;12.30;99.90
14993;DHT22;7592;51.088;13.732;2023-02-18T14:06:34;12.20;99.90
14993;DHT22;7592;51.088;13.732;2023-02-18T14:11:39;12.20;99.90
14993;DHT22;7592;51.088;13.732;2023-02-18T14:22:28;12.20;99.90
14993;DHT22;7592;51.088;13.732;2023-02-18T14:27:23;12.10;99.90
14993;DHT22;7592;51.088;13.732;2023-02-18T14:32:17;12.10;99.90
14993;DHT22;7592;51.088;13.732;2023-02-18T14:52:55;12.00;99.90
14993;DHT22;7592;51.088;13.732;2023-02-18T14:57:51;12.00;99.90
14993;DHT22;7592;51.088;13.732;2023-02-18T15:02:48;12.00;99.90
14993;DHT22;7592;51.088;13.732;2023-02-18T15:07:41;12.00;99.90
14993;DHT22;7592;51.088;13.732;2023-02-18T15:12:33;11.90;99.90
14993;DHT22;7592;51.088;13.732;2023-02-18T15:17:25;11.70;99.90
14993;DHT22;7592;51.088;13.732;2023-02-18T15:22:22;11.50;99.90
14993;DHT22;7592;51.088;13.732;2023-02-18T15:27:21;11.40;99.90
14993;DHT22;7592;51.088;13.732;2023-02-18T15:32:17;11.40;99.90
14993;DHT22;7592;51.088;13.732;2023-02-18T15:37:13;11.40;99.90
14993;DHT22;7592;51.088;13.732;2023-02-18T15:42:21;11.40;99.90
14993;DHT22;7592;51.088;13.732;2023-02-18T15:47:15;11.60;99.90
14993;DHT22;7592;51.088;13.732;2023-02-18T15:52:09;11.60;99.90
14993;DHT22;7592;51.088;13.732;2023-02-18T15:57:02;11.70;99.90
14993;DHT22;7592;51.088;13.732;2023-02-18T16:07:14;11.70;99.90
14993;DHT22;7592;51.088;13.732;2023-02-18T16:17:20;11.70;99.90
14993;DHT22;7592;51.088;13.732;2023-02-18T16:27:26;11.70;99.90
14993;DHT22;7592;51.088;13.732;2023-02-18T16:32:19;11.70;99.90
14993;DHT22;7592;51.088;13.732;2023-02-18T16:37:12;11.70;99.90
14993;DHT22;7592;51.088;13.732;2023-02-18T16:42:23;11.70;99.90
14993;DHT22;7592;51.088;13.732;2023-02-18T16:47:16;11.60;99.90
14993;DHT22;7592;51.088;13.732;2023-02-18T16:52:10;11.60;99.90
14993;DHT22;7592;51.088;13.732;2023-02-18T16:57:03;11.60;99.90
14993;DHT22;7592;51.088;13.732;2023-02-18T17:01:55;11.60;99.90
14993;DHT22;7592;51.088;13.732;2023-02-18T17:06:48;11.60;99.90
14993;DHT22;7592;51.088;13.732;2023-02-18T17:11:40;11.60;99.90
14993;DHT22;7592;51.088;13.732;2023-02-18T17:16:32;11.60;99.90
14993;DHT22;7592;51.088;13.732;2023-02-18T17:21:24;11.60;99.90
14993;DHT22;7592;51.088;13.732;2023-02-18T17:26:24;11.60;99.90
14993;DHT22;7592;51.088;13.732;2023-02-18T17:31:21;11.50;99.90
14993;DHT22;7592;51.088;13.732;2023-02-18T17:36:14;11.40;99.90
14993;DHT22;7592;51.088;13.732;2023-02-18T17:41:10;11.20;99.90
14993;DHT22;7592;51.088;13.732;2023-02-18T17:46:03;11.20;99.90
14993;DHT22;7592;51.088;13.732;2023-02-18T17:50:55;11.10;99.90
14993;DHT22;7592;51.088;13.732;2023-02-18T17:55:49;11.00;99.90
14993;DHT22;7592;51.088;13.732;2023-02-18T18:00:47;11.10;99.90
14993;DHT22;7592;51.088;13.732;2023-02-18T18:05:42;11.10;99.90
14993;DHT22;7592;51.088;13.732;2023-02-18T18:10:44;11.10;99.90
14993;DHT22;7592;51.088;13.732;2023-02-18T18:15:40;11.10;99.90
14993;DHT22;7592;51.088;13.732;2023-02-18T18:20:34;11.20;99.90
14993;DHT22;7592;51.088;13.732;2023-02-18T18:25:37;11.20;99.90
14993;DHT22;7592;51.088;13.732;2023-02-18T18:30:31;11.30;99.90
14993;DHT22;7592;51.088;13.732;2023-02-18T18:35:33;11.40;99.90
14993;DHT22;7592;51.088;13.732;2023-02-18T18:40:28;11.50;99.90
14993;DHT22;7592;51.088;13.732;2023-02-18T18:45:32;11.50;99.90
14993;DHT22;7592;51.088;13.732;2023-02-18T18:50:27;11.40;99.90
14993;DHT22;7592;51.088;13.732;2023-02-18T18:55:38;11.30;99.90
14993;DHT22;7592;51.088;13.732;2023-02-18T19:00:37;11.20;99.90
14993;DHT22;7592;51.088;13.732;2023-02-18T19:05:31;11.10;99.90
14993;DHT22;7592;51.088;13.732;2023-02-18T19:10:42;11.10;99.90
14993;DHT22;7592;51.088;13.732;2023-02-18T19:15:34;11.10;99.90
14993;DHT22;7592;51.088;13.732;2023-02-18T19:20:30;11.10;99.90
14993;DHT22;7592;51.088;13.732;2023-02-18T19:25:23;11.10;99.90
14993;DHT22;7592;51.088;13.732;2023-02-18T19:30:24;11.10;99.90
14993;DHT22;7592;51.088;13.732;2023-02-18T19:35:17;11.10;99.90
14993;DHT22;7592;51.088;13.732;2023-02-18T19:40:12;11.20;99.90
14993;DHT22;7592;51.088;13.732;2023-02-18T19:45:07;11.10;99.90
14993;DHT22;7592;51.088;13.732;2023-02-18T19:50:01;11.00;99.90
14993;DHT22;7592;51.088;13.732;2023-02-18T19:54:54;11.00;99.90
14993;DHT22;7592;51.088;13.732;2023-02-18T19:59:46;10.70;99.90
14993;DHT22;7592;51.088;13.732;2023-02-18T20:04:38;10.60;99.90
14993;DHT22;7592;51.088;13.732;2023-02-18T20:09:30;10.50;99.90
14993;DHT22;7592;51.088;13.732;2023-02-18T20:14:22;10.60;99.90
14993;DHT22;7592;51.088;13.732;2023-02-18T20:19:17;10.60;99.90
14993;DHT22;7592;51.088;13.732;2023-02-18T20:24:11;10.60;99.90
14993;DHT22;7592;51.088;13.732;2023-02-18T20:29:04;10.50;99.90
14993;DHT22;7592;51.088;13.732;2023-02-18T20:33:56;10.40;99.90
14993;DHT22;7592;51.088;13.732;2023-02-18T20:38:49;10.50;99.90
14993;DHT22;7592;51.088;13.732;2023-02-18T20:43:48;10.60;99.90
14993;DHT22;7592;51.088;13.732;2023-02-18T20:48:40;10.70;99.90
14993;DHT22;7592;51.088;13.732;2023-02-18T20:53:33;10.70;99.90
14993;DHT22;7592;51.088;13.732;2023-02-18T20:58:26;10.80;99.90
14993;DHT22;7592;51.088;13.732;2023-02-18T21:03:18;10.90;99.90
14993;DHT22;7592;51.088;13.732;2023-02-18T21:08:10;10.80;99.90
14993;DHT22;7592;51.088;13.732;2023-02-18T21:13:02;10.70;99.90
14993;DHT22;7592;51.088;13.732;2023-02-18T21:17:54;10.70;99.90
14993;DHT22;7592;51.088;13.732;2023-02-18T21:22:47;10.80;99.90
14993;DHT22;7592;51.088;13.732;2023-02-18T21:27:39;10.80;99.90
14993;DHT22;7592;51.088;13.732;2023-02-18T21:32:31;10.80;99.90
14993;DHT22;7592;51.088;13.732;2023-02-18T21:37:23;10.80;99.90
14993;DHT22;7592;51.088;13.732;2023-02-18T21:42:15;10.80;99.90
14993;DHT22;7592;51.088;13.732;2023-02-18T21:47:07;10.80;99.90
14993;DHT22;7592;51.088;13.732;2023-02-18T21:51:59;10.90;99.90
14993;DHT22;7592;51.088;13.732;2023-02-18T21:56:53;10.80;99.90
14993;DHT22;7592;51.088;13.732;2023-02-18T22:01:46;10.80;99.90
14993;DHT22;7592;51.088;13.732;2023-02-18T22:06:38;10.80;99.90
14993;DHT22;7592;51.088;13.732;2023-02-18T22:11:31;10.70;99.90
14993;DHT22;7592;51.088;13.732;2023-02-18T22:16:23;10.80;99.90
14993;DHT22;7592;51.088;13.732;2023-02-18T22:21:19;10.80;99.90
14993;DHT22;7592;51.088;13.732;2023-02-18T22:26:11;10.70;99.90
14993;DHT22;7592;51.088;13.732;2023-02-18T22:31:11;10.60;99.90
14993;DHT22;7592;51.088;13.732;2023-02-18T22:36:05;10.60;99.90
14993;DHT22;7592;51.088;13.732;2023-02-18T22:41:08;10.60;99.90
14993;DHT22;7592;51.088;13.732;2023-02-18T22:46:05;10.70;99.90
14993;DHT22;7592;51.088;13.732;2023-02-18T22:51:15;10.80;99.90
14993;DHT22;7592;51.088;13.732;2023-02-18T22:56:13;10.80;99.90
14993;DHT22;7592;51.088;13.732;2023-02-18T23:01:05;10.80;99.90
14993;DHT22;7592;51.088;13.732;2023-02-18T23:06:04;10.80;99.90
14993;DHT22;7592;51.088;13.732;2023-02-18T23:11:11;10.70;99.90
14993;DHT22;7592;51.088;13.732;2023-02-18T23:16:07;10.70;99.90
14993;DHT22;7592;51.088;13.732;2023-02-18T23:21:05;10.60;99.90
14993;DHT22;7592;51.088;13.732;2023-02-18T23:26:12;10.50;99.90
14993;DHT22;7592;51.088;13.732;2023-02-18T23:31:04;10.50;99.90
14993;DHT22;7592;51.088;13.732;2023-02-18T23:36:16;10.40;99.90
14993;DHT22;7592;51.088;13.732;2023-02-18T23:41:08;10.30;99.90
14993;DHT22;7592;51.088;13.732;2023-02-18T23:46:00;10.20;99.90
14993;DHT22;7592;51.088;13.732;2023-02-18T23:51:00;10.30;99.90
